Latest Weather Observations for Launceston

IDT60801

Issued at 7:32 pm EDT Saturday 21 January 2017 (issued every 30 minutes, with the page automatically refreshed every 10 minutes)

About weather observations | Map of weather stations | Latest weather observations for TAS | Other Formats
Station Details ID: 091237 Name: LAUNCESTON (TI TREE BEND) Lat: -41.42 Lon: 147.12 Height: 5.0 m
Data from the previous 72 hours. | See also: Recent months at Launceston
Date/Time
EDT
Temp
°C
App
Temp
°C
Dew
Point
°C
Rel
Hum
%
Delta-T
°C
Wind Press
QNH
hPa
Press
MSL
hPa
Rain since
9am
mm
Dir  Spd
km/h
Gust
km/h
Spd
kts
Gust
kts
21/07:00pm 21.4 18.4 12.0 55 5.3 NNW 19 28 10 15 - - 0.0
21/06:30pm 22.2 19.9 11.9 52 5.8 NW 15 22 8 12 - - 0.0
21/06:00pm 22.5 19.6 12.2 52 5.8 N 19 30 10 16 - - 0.0
21/05:30pm 22.1 19.2 12.4 54 5.5 NNW 19 28 10 15 - - 0.0
21/05:00pm 22.6 20.1 12.3 52 5.8 NNW 17 26 9 14 - - 0.0
21/04:30pm 21.4 18.4 12.0 55 5.3 NNW 19 28 10 15 - - 0.0
21/04:00pm 22.2 19.8 12.7 55 5.4 NNW 17 28 9 15 - - 0.0
21/03:30pm 20.8 17.7 12.2 58 4.8 NNW 20 28 11 15 - - 0.0
21/03:00pm 21.6 18.8 11.3 52 5.7 WNW 17 26 9 14 - - 0.0
21/02:30pm 23.0 21.1 10.4 45 6.9 W 11 17 6 9 - - 0.0
21/02:00pm 22.6 19.5 9.0 42 7.3 WNW 15 24 8 13 - - 0.0
21/01:30pm 21.7 20.4 9.3 45 6.6 N 6 9 3 5 - - 0.0
21/01:00pm 20.4 19.6 9.6 50 5.8 NNW 4 7 2 4 - - 0.0
21/12:30pm 19.5 17.1 10.2 55 5.0 N 13 20 7 11 - - 0.0
21/12:00pm 19.8 18.2 10.2 54 5.2 N 9 15 5 8 - - 0.0
21/11:30am 19.3 17.6 10.0 55 5.0 N 9 15 5 8 - - 0.0
21/11:00am 18.7 16.8 8.9 53 5.1 N 9 15 5 8 - - 0.0
21/10:30am 17.5 16.1 9.4 59 4.2 N 7 11 4 6 - - 0.0
21/10:00am 16.3 14.8 9.0 62 3.8 NNW 7 13 4 7 - - 0.0
21/09:30am 15.1 13.3 8.1 63 3.5 NW 7 11 4 6 - - 0.0
21/09:00am 13.2 12.1 10.0 81 1.6 NW 6 9 3 5 - - 9.0
21/08:30am 11.8 11.7 10.9 94 0.5 NNW 2 6 1 3 - - 9.0
21/08:00am 11.1 10.2 10.5 96 0.3 NW 6 7 3 4 - - 9.0
21/07:30am 10.2 9.0 9.6 96 0.3 NNW 6 7 3 4 - - 9.0
21/07:00am 9.3 8.3 8.7 96 0.3 NW 4 6 2 3 - - 9.0
21/06:30am 8.7 8.3 8.1 96 0.3 CALM 0 0 0 0 - - 9.0
21/06:00am 7.9 7.2 7.1 95 0.4 CALM 0 0 0 0 - - 9.0
21/05:30am 8.3 7.7 7.5 95 0.4 CALM 0 2 0 1 - - 9.0
21/05:00am 9.0 8.2 8.2 95 0.4 E 2 6 1 3 - - 9.0
21/04:30am 9.0 8.6 8.1 94 0.4 CALM 0 0 0 0 - - 9.0
21/04:00am 9.7 8.7 8.9 95 0.4 E 4 6 2 3 - - 9.0
21/03:30am 9.8 8.8 8.9 94 0.4 E 4 6 2 3 - - 9.0
21/03:00am 10.4 9.6 9.5 94 0.4 E 4 7 2 4 - - 9.0
21/02:30am 9.9 9.2 8.7 92 0.6 SSE 2 2 1 1 - - 9.0
21/02:00am 11.0 10.3 9.9 93 0.6 E 4 6 2 3 - - 9.0
21/01:30am 11.2 10.1 9.8 91 0.7 ENE 6 9 3 5 - - 9.0
21/01:00am 12.1 12.4 10.8 92 0.7 CALM 0 7 0 4 - - 9.0
21/12:30am 11.9 10.9 10.3 90 0.8 SSW 6 7 3 4 - - 9.0
21/12:00am 12.9 11.8 10.8 87 1.1 NE 7 9 4 5 - - 9.0
 
Date/Time
EDT
Temp
°C
App
Temp
°C
Dew
Point
°C
Rel
Hum
%
Delta-T
°C
Wind Press
QNH
hPa
Press
MSL
hPa
Rain since
9am
mm
Dir  Spd
km/h
Gust
km/h
Spd
kts
Gust
kts
20/11:30pm 13.4 12.9 10.6 83 1.5 SE 4 6 2 3 - - 9.0
20/11:00pm 13.6 12.4 10.4 81 1.7 S 7 11 4 6 - - 9.0
20/10:30pm 14.0 12.5 10.4 79 1.9 S 9 15 5 8 - - 9.0
20/10:00pm 14.8 12.5 10.6 76 2.2 SSE 13 19 7 10 - - 9.0
20/09:30pm 15.5 13.2 10.3 71 2.7 SSE 13 20 7 11 - - 9.0
20/09:00pm 16.3 13.6 10.2 67 3.2 SE 15 24 8 13 - - 9.0
20/08:30pm 16.4 13.7 10.5 68 3.1 SSE 15 24 8 13 - - 9.0
20/08:00pm 17.1 14.4 10.5 65 3.5 SSE 15 26 8 14 - - 9.0
20/07:30pm 16.8 13.7 10.4 66 3.4 SE 17 28 9 15 - - 9.0
20/07:00pm 17.4 13.8 10.5 64 3.7 SE 20 32 11 17 - - 9.0
20/06:30pm 17.5 14.0 10.1 62 3.9 SE 19 30 10 16 - - 9.0
20/06:00pm 17.4 13.4 10.3 63 3.8 SSE 22 32 12 17 - - 9.0
20/05:30pm 18.2 14.4 11.0 63 3.9 SE 22 35 12 19 - - 9.0
20/05:00pm 18.3 14.4 10.9 62 4.0 SSE 22 35 12 19 - - 9.0
20/04:30pm 17.7 12.7 10.8 64 3.7 SSE 28 43 15 23 - - 9.0
20/04:14pm 17.4 11.9 10.5 64 3.7 SE 30 52 16 28 - - 9.0
20/04:00pm 17.6 11.6 10.2 62 3.9 SSE 32 48 17 26 - - 9.0
20/03:33pm 17.2 12.2 11.0 67 3.3 SSE 28 52 15 28 - - 9.0
20/03:30pm 17.7 13.8 12.2 70 3.0 SSE 24 37 13 20 - - 9.0
20/03:00pm 16.3 10.2 11.7 74 2.5 SSE 35 54 19 29 - - 9.0
20/02:34pm 15.8 11.0 12.9 83 1.6 SSE 30 48 16 26 - - 9.0
20/02:30pm 15.3 9.9 12.2 82 1.7 SSE 32 48 17 26 - - 9.0
20/02:28pm 15.4 10.5 12.5 83 1.6 SSE 30 48 16 26 - - 9.0
20/02:00pm 14.8 10.1 12.1 84 1.5 SSE 28 41 15 22 - - 9.0
20/01:33pm 14.7 9.2 11.8 83 1.6 SSE 32 52 17 28 - - 9.0
20/01:30pm 14.6 8.8 11.6 82 1.6 SSE 33 52 18 28 - - 9.0
20/01:00pm 14.2 8.1 11.9 86 1.2 S 35 56 19 30 - - 9.0
20/12:30pm 14.4 8.5 12.3 87 1.1 S 35 54 19 29 - - 9.0
20/12:02pm 14.4 9.2 12.8 90 0.9 S 32 50 17 27 - - 9.0
20/12:00pm 14.5 9.1 12.9 90 0.9 S 33 50 18 27 - - 9.0
20/11:45am 14.4 9.0 12.8 90 0.9 SSE 33 54 18 29 - - 9.0
20/11:30am 14.2 10.6 13.2 94 0.6 SSE 24 39 13 21 - - 9.0
20/11:11am 13.9 9.4 12.6 92 0.7 SSE 28 50 15 27 - - 8.8
20/11:00am 14.1 10.5 13.0 93 0.6 SSE 24 39 13 21 - - 8.4
20/10:30am 13.8 11.4 12.7 93 0.6 SSE 17 26 9 14 - - 6.4
20/10:00am 13.9 12.0 13.0 94 0.5 SSE 15 24 8 13 - - 4.0
20/09:30am 13.6 10.8 12.7 94 0.5 SSE 19 30 10 16 - - 2.2
20/09:00am 13.6 11.6 12.7 94 0.5 SSE 15 22 8 12 - - 16.0
20/08:30am 13.4 10.6 12.5 94 0.5 SSE 19 26 10 14 - - 15.0
20/08:00am 13.3 11.6 12.5 95 0.4 SSE 13 20 7 11 - - 14.2
20/07:30am 13.0 11.6 12.1 94 0.5 SSE 11 17 6 9 - - 11.4
20/07:00am 13.0 11.1 11.9 93 0.6 SSE 13 22 7 12 - - 9.0
20/06:30am 12.6 11.0 11.7 94 0.5 S 11 19 6 10 - - 8.2
20/06:00am 12.3 11.0 11.2 93 0.6 S 9 15 5 8 - - 7.2
20/05:30am 12.7 9.9 11.4 92 0.7 S 17 24 9 13 - - 5.2
20/05:00am 13.0 11.4 11.6 91 0.7 S 11 19 6 10 - - 3.6
20/04:30am 13.2 11.4 10.7 85 1.3 S 11 17 6 9 - - 1.8
20/04:00am 15.3 13.2 8.3 63 3.5 SE 9 13 5 7 - - 0.0
20/03:30am 15.3 13.1 7.8 61 3.7 SSE 9 11 5 6 - - 0.0
20/03:00am 15.6 13.9 7.4 58 4.1 SSE 6 9 3 5 - - 0.0
20/02:30am 15.1 14.6 7.9 62 3.6 CALM 0 6 0 3 - - 0.0
20/02:00am 15.0 14.0 7.5 61 3.7 SW 2 4 1 2 - - 0.0
20/01:30am 15.5 14.0 6.8 56 4.3 E 4 7 2 4 - - 0.0
20/01:00am 15.3 13.8 6.8 57 4.2 SSE 4 20 2 11 - - 0.0
20/12:30am 15.5 13.6 7.5 59 4.0 N 7 13 4 7 - - 0.0
20/12:00am 15.6 13.9 8.4 62 3.6 N 7 11 4 6 - - 0.0
 
Date/Time
EDT
Temp
°C
App
Temp
°C
Dew
Point
°C
Rel
Hum
%
Delta-T
°C
Wind Press
QNH
hPa
Press
MSL
hPa
Rain since
9am
mm
Dir  Spd
km/h
Gust
km/h
Spd
kts
Gust
kts
19/11:30pm 15.0 14.1 7.8 62 3.6 WNW 2 6 1 3 - - 0.0
19/11:00pm 15.6 14.2 7.4 58 4.1 NW 4 9 2 5 - - 0.0
19/10:30pm 16.2 14.6 7.9 58 4.2 NE 6 9 3 5 - - 0.0
19/10:00pm 16.3 15.0 7.8 57 4.3 NNE 4 7 2 4 - - 0.0
19/09:30pm 16.6 14.8 8.1 57 4.3 NE 7 13 4 7 - - 0.0
19/09:00pm 16.9 15.2 8.3 57 4.4 N 7 13 4 7 - - 0.0
19/08:30pm 17.0 14.5 8.4 57 4.4 N 11 15 6 8 - - 0.0
19/08:00pm 17.4 14.2 8.3 55 4.7 N 15 24 8 13 - - 0.0
19/07:30pm 18.1 14.4 8.1 52 5.1 N 17 24 9 13 - - 0.0
19/07:00pm 18.6 15.5 8.8 53 5.1 NNW 15 24 8 13 - - 0.0
19/06:30pm 19.2 15.2 8.2 49 5.7 N 19 26 10 14 - - 0.0
19/06:00pm 20.2 16.2 9.2 49 5.8 NW 20 32 11 17 - - 0.0
19/05:30pm 21.0 17.1 9.3 47 6.2 NW 20 30 11 16 - - 0.0
19/05:00pm 21.6 18.0 8.5 43 6.9 NW 17 28 9 15 - - 0.0
19/04:30pm 21.2 17.5 7.8 42 6.9 NW 17 28 9 15 - - 0.0
19/04:00pm 21.9 18.8 8.8 43 6.9 NNW 15 24 8 13 - - 0.0
19/03:30pm 21.8 18.7 8.7 43 6.9 NW 15 24 8 13 - - 0.0
19/03:00pm 21.7 18.5 8.6 43 6.9 NW 15 24 8 13 - - 0.0
19/02:30pm 21.8 18.7 8.7 43 6.9 NW 15 28 8 15 - - 0.0
19/02:00pm 21.5 18.8 7.3 40 7.3 NW 11 20 6 11 - - 0.0
19/01:30pm 21.6 20.2 8.8 44 6.8 NNW 6 15 3 8 - - 0.0
19/01:00pm 20.8 18.6 6.4 39 7.3 NW 7 15 4 8 - - 0.0
19/12:30pm 20.7 18.7 7.3 42 6.9 WNW 7 13 4 7 - - 0.0
19/12:00pm 19.9 18.1 7.3 44 6.4 NE 6 11 3 6 - - 0.0
19/11:30am 19.0 17.1 4.7 39 6.9 WNW 4 7 2 4 - - 0.0
19/11:00am 18.2 16.0 5.1 42 6.3 SW 6 13 3 7 - - 0.0
19/10:30am 17.2 14.8 4.2 42 6.1 SSW 6 11 3 6 - - 0.0
19/10:00am 17.2 14.3 4.5 43 6.0 SSE 9 13 5 7 - - 0.0
19/09:30am 16.2 13.2 3.9 44 5.7 SSE 9 17 5 9 - - 0.0
19/09:00am 15.6 12.4 4.9 49 5.0 SE 11 19 6 10 - - 0.0
19/08:30am 13.8 10.7 3.6 50 4.6 SE 9 17 5 9 - - 0.0
19/08:00am 12.0 9.5 5.0 62 3.2 ESE 7 11 4 6 - - 0.0
19/07:30am 10.4 7.9 5.0 69 2.4 E 7 9 4 5 - - 0.0
19/07:00am 9.7 7.5 5.3 74 2.0 ESE 6 7 3 4 - - 0.0
19/06:30am 7.3 5.7 4.4 82 1.3 ESE 2 4 1 2 - - 0.0
19/06:00am 6.6 4.3 3.0 78 1.5 ESE 4 9 2 5 - - 0.0
19/05:30am 6.6 4.8 3.6 81 1.3 E 2 7 1 4 - - 0.0
19/05:00am 7.4 5.2 3.1 74 1.8 E 4 7 2 4 - - 0.0
19/04:30am 8.4 5.8 4.0 74 1.9 E 7 9 4 5 - - 0.0
19/04:00am 8.8 6.2 3.4 69 2.3 E 6 7 3 4 - - 0.0
19/03:30am 9.8 7.0 3.3 64 2.8 ESE 7 13 4 7 - - 0.0
19/03:00am 9.1 6.3 3.3 67 2.5 ESE 7 9 4 5 - - 0.0
19/02:30am 9.8 6.7 3.8 66 2.6 E 9 11 5 6 - - 0.0
19/02:00am 9.9 7.7 3.6 65 2.7 ESE 4 6 2 3 - - 0.0
19/01:30am 10.8 8.3 4.0 63 3.0 ENE 6 7 3 4 - - 0.0
19/01:00am 11.1 8.3 2.9 57 3.6 E 7 9 4 5 - - 0.0
19/12:30am 13.2 10.2 1.8 46 4.9 SE 7 17 4 9 - - 0.0
19/12:00am 13.4 10.4 2.0 46 5.0 SE 7 17 4 9 - - 0.0
 
Date/Time
EDT
Temp
°C
App
Temp
°C
Dew
Point
°C
Rel
Hum
%
Delta-T
°C
Wind Press
QNH
hPa
Press
MSL
hPa
Rain since
9am
mm
Dir  Spd
km/h
Gust
km/h
Spd
kts
Gust
kts
18/11:30pm 13.4 9.7 2.6 48 4.8 S 11 19 6 10 - - 0.0
18/11:00pm 14.6 11.6 1.8 42 5.6 SE 7 13 4 7 - - 0.0
18/10:30pm 15.3 11.4 1.4 39 6.1 SE 11 17 6 9 - - 0.0
18/10:00pm 15.7 12.2 1.4 38 6.3 SE 9 15 5 8 - - 0.0
18/09:30pm 16.4 13.3 1.3 36 6.6 SSE 7 13 4 7 - - 0.0
18/09:00pm 17.1 13.5 0.7 33 7.2 S 9 15 5 8 - - 0.0
18/08:30pm 17.7 13.3 0.4 31 7.5 SSW 13 20 7 11 - - 0.0
18/08:00pm 18.7 13.6 0.8 30 7.9 SSW 17 22 9 12 - - 0.0

Other Formats:

Comma delimited format used in spreadsheet applications
http://www.bom.gov.au/fwo/IDT60801/IDT60801.94969.axf

JavaScript Object Notation format (JSON) in row-major order
http://www.bom.gov.au/fwo/IDT60801/IDT60801.94969.json